createdAt,value
2022-11-23T00:01:16.919Z,5.61
2022-11-23T00:03:44.905Z,5.58
2022-11-23T00:06:11.841Z,5.59
2022-11-23T00:08:38.562Z,5.58
2022-11-23T00:11:05.443Z,5.55
2022-11-23T00:13:32.473Z,5.54
2022-11-23T00:15:58.995Z,5.55
2022-11-23T00:18:25.596Z,5.53
2022-11-23T00:20:52.175Z,5.53
2022-11-23T00:23:18.761Z,5.50
2022-11-23T00:25:46.814Z,5.53
2022-11-23T00:28:13.556Z,5.52
2022-11-23T00:30:40.205Z,5.54
2022-11-23T00:33:06.783Z,5.52
2022-11-23T00:35:33.341Z,5.52
2022-11-23T00:37:59.888Z,5.52
2022-11-23T00:40:26.467Z,5.50
2022-11-23T00:42:53.010Z,5.52
2022-11-23T00:45:19.610Z,5.51
2022-11-23T00:47:46.142Z,5.48
2022-11-23T00:50:12.754Z,5.49
2022-11-23T00:52:39.379Z,5.46
2022-11-23T00:55:06.328Z,5.46
2022-11-23T00:57:36.558Z,5.45
2022-11-23T01:00:04.528Z,5.40
2022-11-23T01:02:31.070Z,5.40
2022-11-23T01:04:57.607Z,5.40
2022-11-23T01:07:24.262Z,5.40
2022-11-23T01:09:50.813Z,5.44
2022-11-23T01:12:17.391Z,5.47
2022-11-23T01:14:43.971Z,5.49
2022-11-23T01:17:10.503Z,5.51
2022-11-23T01:19:37.019Z,5.53
2022-11-23T01:22:03.578Z,5.55
2022-11-23T01:24:30.301Z,5.61
2022-11-23T01:26:56.898Z,5.65
2022-11-23T01:29:24.718Z,5.69
2022-11-23T01:31:51.300Z,5.72
2022-11-23T01:34:18.070Z,5.74
2022-11-23T01:36:45.384Z,5.77
2022-11-23T01:39:13.155Z,5.81
2022-11-23T01:41:43.176Z,5.84
2022-11-23T01:44:30.295Z,5.86
2022-11-23T01:47:05.290Z,5.89
2022-11-23T01:49:35.900Z,5.92
2022-11-23T01:52:08.579Z,5.92
2022-11-23T01:54:43.777Z,5.93
2022-11-23T01:57:16.848Z,5.94
2022-11-23T01:59:43.646Z,5.97
2022-11-23T02:02:10.316Z,5.97
2022-11-23T02:04:40.879Z,5.99
2022-11-23T02:07:08.457Z,5.97
2022-11-23T02:09:36.373Z,5.97
2022-11-23T02:12:03.106Z,5.92
2022-11-23T02:14:30.257Z,5.94
2022-11-23T02:16:59.977Z,5.95
2022-11-23T02:19:45.234Z,5.97
2022-11-23T02:22:22.182Z,6.00
2022-11-23T02:24:54.130Z,5.96
2022-11-23T02:27:22.821Z,5.99
2022-11-23T02:29:50.995Z,5.99
2022-11-23T02:32:23.715Z,5.98
2022-11-23T02:34:50.823Z,5.99
2022-11-23T02:37:18.796Z,6.00
2022-11-23T02:39:48.241Z,5.99
2022-11-23T02:42:14.921Z,6.01
2022-11-23T02:45:00.480Z,6.03
2022-11-23T02:47:27.209Z,6.06
2022-11-23T02:49:53.868Z,6.04
2022-11-23T02:52:20.422Z,6.04
2022-11-23T02:54:47.320Z,6.03
2022-11-23T02:57:14.491Z,6.01
2022-11-23T02:59:41.100Z,5.96
2022-11-23T03:02:07.717Z,5.91
2022-11-23T03:04:34.394Z,5.90
2022-11-23T03:07:01.075Z,5.89
2022-11-23T03:09:28.324Z,5.88
2022-11-23T03:11:55.249Z,5.81
2022-11-23T03:14:22.126Z,5.79
2022-11-23T03:16:48.734Z,5.75
2022-11-23T03:19:15.572Z,5.76
2022-11-23T03:21:42.222Z,5.74
2022-11-23T03:24:08.777Z,5.72
2022-11-23T03:26:35.472Z,5.70
2022-11-23T03:29:02.138Z,5.66
2022-11-23T03:31:28.710Z,5.64
2022-11-23T03:33:55.257Z,5.66
2022-11-23T03:36:21.838Z,5.67
2022-11-23T03:38:48.461Z,5.68
2022-11-23T03:41:15.025Z,5.67
2022-11-23T03:43:41.590Z,5.67
2022-11-23T03:46:08.151Z,5.66
2022-11-23T03:48:34.732Z,5.67
2022-11-23T03:51:01.321Z,5.65
2022-11-23T03:53:27.918Z,5.63
2022-11-23T03:55:57.543Z,5.63
2022-11-23T03:58:24.248Z,5.63
2022-11-23T04:00:51.308Z,5.58
2022-11-23T04:03:17.943Z,5.54
2022-11-23T04:05:44.544Z,5.52
2022-11-23T04:08:11.145Z,5.53
2022-11-23T04:10:37.738Z,5.49
2022-11-23T04:13:04.376Z,5.50
2022-11-23T04:15:30.926Z,5.49
2022-11-23T04:17:57.520Z,5.47
2022-11-23T04:20:24.155Z,5.45
2022-11-23T04:22:50.771Z,5.46
2022-11-23T04:25:17.863Z,5.44
2022-11-23T04:27:45.439Z,5.42
2022-11-23T04:30:12.406Z,5.44
2022-11-23T04:32:38.939Z,5.47
2022-11-23T04:35:05.982Z,5.46
2022-11-23T04:37:32.617Z,5.46
2022-11-23T04:39:59.199Z,5.45
2022-11-23T04:42:25.836Z,5.44
2022-11-23T04:44:52.429Z,5.45
2022-11-23T04:47:18.975Z,5.48
2022-11-23T04:49:45.562Z,5.51
2022-11-23T04:52:12.431Z,5.54
2022-11-23T04:54:38.974Z,5.53
2022-11-23T04:57:05.594Z,5.53
2022-11-23T04:59:32.455Z,5.54
2022-11-23T05:01:59.296Z,5.54
2022-11-23T05:04:25.943Z,5.56
2022-11-23T05:06:52.550Z,5.54
2022-11-23T05:09:19.222Z,5.50
2022-11-23T05:11:45.864Z,5.52
2022-11-23T05:14:12.487Z,5.51
2022-11-23T05:16:39.053Z,5.47
2022-11-23T05:19:05.750Z,5.48
2022-11-23T05:21:32.273Z,5.48
2022-11-23T05:23:58.780Z,5.49
2022-11-23T05:26:25.461Z,5.50
2022-11-23T05:28:52.041Z,5.54
2022-11-23T05:31:19.483Z,5.58
2022-11-23T05:33:46.388Z,5.64
2022-11-23T05:36:15.864Z,5.65
2022-11-23T05:38:42.986Z,5.66
2022-11-23T05:41:09.681Z,5.65
2022-11-23T05:43:36.298Z,5.66
2022-11-23T05:46:03.691Z,5.67
2022-11-23T05:48:30.329Z,5.65
2022-11-23T05:51:02.202Z,5.63
2022-11-23T05:53:31.563Z,5.66
2022-11-23T05:56:02.565Z,5.69
2022-11-23T05:58:29.462Z,5.69
2022-11-23T06:01:00.302Z,5.72
2022-11-23T06:03:27.350Z,5.71
2022-11-23T06:05:53.978Z,5.71
2022-11-23T06:08:20.662Z,5.71
2022-11-23T06:10:47.283Z,5.74
2022-11-23T06:13:13.833Z,5.76
2022-11-23T06:15:40.438Z,5.78
2022-11-23T06:18:07.049Z,5.81
2022-11-23T06:20:33.676Z,5.80
2022-11-23T06:23:00.298Z,5.80
2022-11-23T06:25:27.107Z,5.81
2022-11-23T06:28:01.297Z,5.85
2022-11-23T06:30:30.250Z,5.88
2022-11-23T06:32:57.167Z,5.90
2022-11-23T06:35:24.305Z,5.94
2022-11-23T06:37:52.108Z,5.95
2022-11-23T06:40:18.776Z,5.98
2022-11-23T06:42:45.499Z,6.00
2022-11-23T06:45:12.695Z,6.02
2022-11-23T06:47:39.391Z,6.02
2022-11-23T06:50:07.104Z,6.05
2022-11-23T06:52:33.762Z,6.05
2022-11-23T06:55:00.375Z,6.09
2022-11-23T06:57:26.972Z,6.11
2022-11-23T06:59:53.510Z,6.12
2022-11-23T07:02:20.031Z,6.14
2022-11-23T07:04:46.667Z,6.17
2022-11-23T07:07:13.256Z,6.18
2022-11-23T07:09:39.885Z,6.22
2022-11-23T07:12:06.761Z,6.23
2022-11-23T07:14:33.319Z,6.24
2022-11-23T07:16:59.873Z,6.28
2022-11-23T07:19:26.514Z,6.30
2022-11-23T07:21:53.082Z,6.35
2022-11-23T07:24:19.535Z,6.40
2022-11-23T07:26:45.971Z,6.44
2022-11-23T07:29:12.432Z,6.48
2022-11-23T07:31:38.966Z,6.49
2022-11-23T07:34:05.539Z,6.49
2022-11-23T07:36:32.039Z,6.52
2022-11-23T07:38:58.492Z,6.56
2022-11-23T07:41:27.401Z,6.59
2022-11-23T07:43:53.870Z,6.63
2022-11-23T07:46:20.405Z,6.65
2022-11-23T07:48:46.990Z,6.70
2022-11-23T07:51:13.497Z,6.73
2022-11-23T07:53:39.934Z,6.76
2022-11-23T07:56:06.638Z,6.76
2022-11-23T07:58:33.199Z,6.74
2022-11-23T08:00:59.766Z,6.70
2022-11-23T08:03:28.308Z,6.69
2022-11-23T08:05:55.523Z,6.70
2022-11-23T08:08:22.013Z,6.72
2022-11-23T08:10:52.897Z,6.72
2022-11-23T08:13:21.018Z,6.72
2022-11-23T08:15:53.454Z,6.72
2022-11-23T08:18:21.244Z,6.74
2022-11-23T08:20:47.698Z,6.77
2022-11-23T08:23:14.109Z,6.78
2022-11-23T08:25:40.674Z,6.77
2022-11-23T08:28:07.605Z,6.80
2022-11-23T08:30:34.990Z,6.83
2022-11-23T08:33:07.819Z,6.87
2022-11-23T08:35:35.252Z,6.87
2022-11-23T08:38:01.745Z,6.88
2022-11-23T08:40:28.569Z,6.89
2022-11-23T08:42:55.107Z,6.92
2022-11-23T08:45:21.846Z,6.94
2022-11-23T08:47:48.597Z,6.96
2022-11-23T08:50:15.919Z,6.96
2022-11-23T08:52:42.395Z,6.97
2022-11-23T08:55:09.094Z,6.98
2022-11-23T08:57:35.569Z,7.01
2022-11-23T09:00:02.166Z,6.99
2022-11-23T09:02:28.702Z,7.02
2022-11-23T09:04:55.167Z,7.01
2022-11-23T09:07:21.670Z,7.01
2022-11-23T09:09:48.354Z,7.01
2022-11-23T09:12:14.879Z,7.05
2022-11-23T09:14:41.298Z,7.11
2022-11-23T09:17:07.732Z,7.17
2022-11-23T09:19:34.188Z,7.22
2022-11-23T09:22:01.052Z,7.29
2022-11-23T09:24:28.124Z,7.34
2022-11-23T09:26:55.186Z,7.34
2022-11-23T09:29:21.751Z,7.38
2022-11-23T09:31:48.261Z,7.41
2022-11-23T09:34:15.001Z,7.45
2022-11-23T09:36:41.750Z,7.48
2022-11-23T09:39:08.590Z,7.51
2022-11-23T09:41:50.258Z,7.53
2022-11-23T09:44:19.924Z,7.54
2022-11-23T09:47:19.037Z,7.59
2022-11-23T09:50:09.262Z,7.61
2022-11-23T09:52:40.572Z,7.61
2022-11-23T09:55:40.127Z,7.64
2022-11-23T09:58:07.673Z,7.66
2022-11-23T10:01:04.056Z,7.70
2022-11-23T10:03:47.039Z,7.68
2022-11-23T10:06:22.674Z,7.69
2022-11-23T10:08:55.020Z,7.67
2022-11-23T10:11:55.218Z,7.65
2022-11-23T10:14:47.318Z,7.66
2022-11-23T10:17:38.237Z,7.65
2022-11-23T10:20:20.674Z,7.66
2022-11-23T10:22:56.236Z,7.64
2022-11-23T10:25:24.114Z,7.62
2022-11-23T10:27:56.995Z,7.59
2022-11-23T10:30:23.786Z,7.63
2022-11-23T10:33:22.396Z,7.61
2022-11-23T10:35:48.991Z,7.59
2022-11-23T10:38:19.385Z,7.61
2022-11-23T10:41:08.769Z,7.58
2022-11-23T10:43:40.508Z,7.56
2022-11-23T10:46:29.343Z,7.57
2022-11-23T10:48:56.882Z,7.54
2022-11-23T10:51:33.638Z,7.58
2022-11-23T10:54:06.110Z,7.50
2022-11-23T10:56:34.274Z,7.49
2022-11-23T10:59:01.142Z,7.49
2022-11-23T11:01:30.312Z,7.47
2022-11-23T11:04:04.003Z,7.48
2022-11-23T11:06:34.660Z,7.47
2022-11-23T11:09:09.547Z,7.48
2022-11-23T11:11:40.094Z,7.44
2022-11-23T11:14:18.589Z,7.44
2022-11-23T11:16:49.291Z,7.43
2022-11-23T11:19:27.522Z,7.41
2022-11-23T11:21:54.496Z,7.42
2022-11-23T11:24:29.121Z,7.45
2022-11-23T11:27:01.921Z,7.43
2022-11-23T11:29:39.346Z,7.39
2022-11-23T11:32:18.604Z,7.36
2022-11-23T11:34:49.955Z,7.35
2022-11-23T11:37:22.584Z,7.32
2022-11-23T11:40:09.485Z,7.39
2022-11-23T11:42:43.994Z,7.40
2022-11-23T11:45:19.358Z,7.41
2022-11-23T11:48:00.380Z,7.43
2022-11-23T11:50:32.306Z,7.46
2022-11-23T11:53:13.672Z,7.48
2022-11-23T11:56:04.680Z,7.47
2022-11-23T11:58:38.870Z,7.46
2022-11-23T12:01:35.651Z,7.45
2022-11-23T12:04:08.370Z,7.45
2022-11-23T12:06:43.082Z,7.46
2022-11-23T12:09:16.518Z,7.46
2022-11-23T12:11:43.212Z,7.48
2022-11-23T12:14:13.419Z,7.49
2022-11-23T12:17:17.050Z,7.51
2022-11-23T12:20:13.434Z,7.53
2022-11-23T12:22:42.657Z,7.53
2022-11-23T12:25:38.413Z,7.52
2022-11-23T12:28:13.297Z,7.53
2022-11-23T12:31:00.810Z,7.53
2022-11-23T12:33:58.430Z,7.52
2022-11-23T12:36:45.166Z,7.51
2022-11-23T12:39:30.350Z,7.50
2022-11-23T12:42:21.833Z,7.48
2022-11-23T12:45:15.888Z,7.46
2022-11-23T12:48:00.743Z,7.47
2022-11-23T12:50:53.508Z,7.42
2022-11-23T12:53:49.001Z,7.43
2022-11-23T12:56:39.969Z,7.43
2022-11-23T12:59:11.141Z,7.43
2022-11-23T13:01:51.670Z,7.44
2022-11-23T13:04:46.060Z,7.45
2022-11-23T13:07:49.436Z,7.46
2022-11-23T13:10:53.925Z,7.45
2022-11-23T13:13:48.865Z,7.45
2022-11-23T13:16:37.301Z,7.44
2022-11-23T13:19:09.971Z,7.41
2022-11-23T13:21:40.239Z,7.39
2022-11-23T13:24:33.219Z,7.38
2022-11-23T13:27:15.164Z,7.34
2022-11-23T13:30:08.449Z,7.30
2022-11-23T13:33:00.088Z,7.27
2022-11-23T13:35:29.464Z,7.26
2022-11-23T13:37:55.967Z,7.24
2022-11-23T13:40:31.821Z,7.22
2022-11-23T13:43:02.066Z,7.21
2022-11-23T13:45:37.902Z,7.20
2022-11-23T13:48:34.136Z,7.18
2022-11-23T13:51:01.641Z,7.14
2022-11-23T13:53:36.762Z,7.13
2022-11-23T13:56:24.598Z,7.13
2022-11-23T13:58:52.843Z,7.12
2022-11-23T14:01:56.972Z,7.14
2022-11-23T14:04:25.447Z,7.13
2022-11-23T14:06:58.360Z,7.13
2022-11-23T14:09:33.231Z,7.12
2022-11-23T14:12:11.887Z,7.14
2022-11-23T14:14:41.060Z,7.12
2022-11-23T14:17:09.261Z,7.12
2022-11-23T14:20:11.320Z,7.11
2022-11-23T14:22:43.693Z,7.11
2022-11-23T14:25:22.765Z,7.11
2022-11-23T14:28:07.819Z,7.10
2022-11-23T14:30:43.238Z,7.10
2022-11-23T14:33:09.782Z,7.07
2022-11-23T14:35:45.101Z,7.05
2022-11-23T14:38:48.951Z,7.05
2022-11-23T14:41:23.715Z,7.03
2022-11-23T14:43:51.159Z,7.03
2022-11-23T14:46:20.718Z,7.03
2022-11-23T14:48:48.896Z,7.02
2022-11-23T14:51:22.635Z,7.02
2022-11-23T14:53:56.055Z,7.02
2022-11-23T14:56:33.474Z,7.00
2022-11-23T14:59:27.859Z,7.01
2022-11-23T15:02:02.090Z,7.00
2022-11-23T15:04:35.206Z,6.98
2022-11-23T15:07:17.688Z,6.98
2022-11-23T15:09:58.040Z,6.95
2022-11-23T15:12:25.567Z,6.93
2022-11-23T15:14:57.739Z,6.93
2022-11-23T15:17:24.963Z,6.93
2022-11-23T15:19:59.898Z,6.93
2022-11-23T15:22:27.324Z,6.93
2022-11-23T15:24:54.483Z,6.93
2022-11-23T15:27:30.199Z,6.92
2022-11-23T15:29:59.512Z,6.92
2022-11-23T15:32:33.738Z,6.90
2022-11-23T15:35:04.329Z,6.91
2022-11-23T15:37:33.177Z,6.91
2022-11-23T15:40:00.608Z,6.91
2022-11-23T15:42:28.281Z,6.93
2022-11-23T15:44:55.542Z,6.90
2022-11-23T15:47:28.511Z,6.92
2022-11-23T15:50:01.467Z,6.92
2022-11-23T15:52:33.189Z,6.92
2022-11-23T15:55:08.903Z,6.93
2022-11-23T15:57:37.736Z,6.90
2022-11-23T16:00:06.826Z,6.92
2022-11-23T16:02:33.521Z,6.93
2022-11-23T16:05:22.453Z,6.93
2022-11-23T16:07:57.659Z,6.96
2022-11-23T16:10:37.531Z,6.99
2022-11-23T16:13:06.090Z,6.99
2022-11-23T16:15:38.574Z,6.98
2022-11-23T16:18:21.810Z,6.98
2022-11-23T16:20:50.499Z,7.00
2022-11-23T16:23:22.449Z,7.01
2022-11-23T16:25:56.878Z,7.00
2022-11-23T16:28:49.651Z,6.99
2022-11-23T16:31:38.036Z,7.00
2022-11-23T16:34:17.284Z,6.97
2022-11-23T16:36:43.884Z,6.95
2022-11-23T16:39:11.153Z,6.95
2022-11-23T16:41:38.264Z,6.92
2022-11-23T16:44:05.450Z,6.90
2022-11-23T16:46:32.208Z,6.89
2022-11-23T16:49:00.286Z,6.88
2022-11-23T16:51:26.899Z,6.86
2022-11-23T16:54:13.020Z,6.87
2022-11-23T16:56:41.088Z,6.87
2022-11-23T16:59:16.962Z,6.88
2022-11-23T17:01:52.551Z,6.88
2022-11-23T17:04:20.867Z,6.87
2022-11-23T17:06:47.468Z,6.86
2022-11-23T17:09:14.059Z,6.88
2022-11-23T17:11:45.126Z,6.88
2022-11-23T17:14:19.014Z,6.87
2022-11-23T17:16:46.833Z,6.89
2022-11-23T17:19:18.563Z,6.91
2022-11-23T17:21:45.769Z,6.92
2022-11-23T17:24:13.785Z,6.95
2022-11-23T17:26:43.194Z,6.98
2022-11-23T17:29:15.019Z,7.00
2022-11-23T17:31:43.621Z,7.00
2022-11-23T17:34:10.378Z,7.01
2022-11-23T17:36:37.736Z,7.03
2022-11-23T17:39:05.304Z,7.05
2022-11-23T17:41:32.021Z,7.04
2022-11-23T17:43:59.976Z,7.04
2022-11-23T17:46:31.587Z,7.04
2022-11-23T17:48:59.753Z,7.03
2022-11-23T17:51:26.592Z,7.02
2022-11-23T17:53:53.232Z,7.01
2022-11-23T17:56:22.602Z,7.00
2022-11-23T17:58:50.502Z,6.99
2022-11-23T18:01:18.981Z,6.99
2022-11-23T18:03:46.495Z,6.99
2022-11-23T18:06:24.558Z,6.98
2022-11-23T18:08:51.978Z,6.98
2022-11-23T18:11:19.427Z,6.96
2022-11-23T18:13:48.025Z,6.94
2022-11-23T18:16:14.830Z,6.92
2022-11-23T18:18:41.479Z,6.90
2022-11-23T18:21:09.794Z,6.89
2022-11-23T18:23:37.344Z,6.87
2022-11-23T18:26:12.966Z,6.84
2022-11-23T18:28:39.618Z,6.80
2022-11-23T18:31:06.686Z,6.78
2022-11-23T18:33:33.321Z,6.75
2022-11-23T18:36:05.154Z,6.75
2022-11-23T18:38:33.328Z,6.73
2022-11-23T18:41:00.165Z,6.74
2022-11-23T18:43:26.805Z,6.73
2022-11-23T18:45:53.605Z,6.72
2022-11-23T18:48:20.177Z,6.69
2022-11-23T18:50:46.947Z,6.70
2022-11-23T18:53:13.462Z,6.72
2022-11-23T18:55:40.082Z,6.72
2022-11-23T18:58:07.126Z,6.71
2022-11-23T19:00:33.900Z,6.72
2022-11-23T19:03:02.375Z,6.72
2022-11-23T19:05:35.787Z,6.75
2022-11-23T19:08:04.690Z,6.74
2022-11-23T19:10:33.204Z,6.75
2022-11-23T19:13:05.062Z,6.76
2022-11-23T19:15:32.933Z,6.76
2022-11-23T19:17:59.911Z,6.78
2022-11-23T19:20:26.603Z,6.75
2022-11-23T19:22:53.203Z,6.75
2022-11-23T19:25:19.838Z,6.72
2022-11-23T19:27:48.953Z,6.72
2022-11-23T19:30:16.112Z,6.72
2022-11-23T19:32:42.763Z,6.71
2022-11-23T19:35:09.744Z,6.71
2022-11-23T19:37:36.833Z,6.73
2022-11-23T19:40:03.939Z,6.73
2022-11-23T19:42:30.564Z,6.73
2022-11-23T19:44:57.178Z,6.72
2022-11-23T19:47:23.768Z,6.72
2022-11-23T19:49:50.349Z,6.70
2022-11-23T19:52:16.950Z,6.70
2022-11-23T19:54:43.617Z,6.69
2022-11-23T19:57:10.557Z,6.69
2022-11-23T19:59:37.106Z,6.70
2022-11-23T20:02:03.855Z,6.72
2022-11-23T20:04:30.688Z,6.72
2022-11-23T20:06:57.306Z,6.71
2022-11-23T20:09:24.047Z,6.73
2022-11-23T20:11:51.788Z,6.73
2022-11-23T20:14:18.700Z,6.74
2022-11-23T20:16:45.403Z,6.76
2022-11-23T20:19:11.968Z,6.76
2022-11-23T20:21:38.706Z,6.78
2022-11-23T20:24:15.677Z,6.78
2022-11-23T20:26:42.877Z,6.80
2022-11-23T20:29:10.394Z,6.78
2022-11-23T20:31:37.751Z,6.80
2022-11-23T20:34:07.324Z,6.79
2022-11-23T20:36:37.409Z,6.82
2022-11-23T20:39:06.992Z,6.82
2022-11-23T20:41:35.394Z,6.82
2022-11-23T20:44:07.326Z,6.83
2022-11-23T20:49:20.990Z,6.82
2022-11-23T20:51:47.714Z,6.81
2022-11-23T20:54:14.270Z,6.80
2022-11-23T20:56:40.813Z,6.80
2022-11-23T20:59:07.367Z,6.79
2022-11-23T21:01:34.706Z,6.79
2022-11-23T21:04:01.465Z,6.79
2022-11-23T21:06:28.566Z,6.79
2022-11-23T21:08:55.517Z,6.79
2022-11-23T21:11:45.939Z,6.79
2022-11-23T21:14:17.879Z,6.79
2022-11-23T21:16:53.514Z,6.77
2022-11-23T21:19:30.896Z,6.77
2022-11-23T21:21:59.276Z,6.76
2022-11-23T21:24:26.026Z,6.75
2022-11-23T21:26:52.681Z,6.75
2022-11-23T21:29:19.699Z,6.75
2022-11-23T21:31:48.771Z,6.74
2022-11-23T21:34:26.391Z,6.74
2022-11-23T21:36:54.492Z,6.73
2022-11-23T21:39:21.326Z,6.75
2022-11-23T21:41:50.222Z,6.73
2022-11-23T21:44:17.894Z,6.75
2022-11-23T21:46:44.519Z,6.77
2022-11-23T21:49:11.227Z,6.77
2022-11-23T21:51:39.337Z,6.77
2022-11-23T21:54:08.002Z,6.76
2022-11-23T21:56:34.549Z,6.76
2022-11-23T21:59:01.482Z,6.75
2022-11-23T22:01:33.415Z,6.75
2022-11-23T22:04:01.898Z,6.76
2022-11-23T22:06:28.994Z,6.75
2022-11-23T22:08:57.887Z,6.73
2022-11-23T22:11:27.222Z,6.72
2022-11-23T22:14:00.235Z,6.72
2022-11-23T22:16:29.903Z,6.71
2022-11-23T22:18:56.991Z,6.70
2022-11-23T22:21:26.162Z,6.68
2022-11-23T22:23:52.833Z,6.69
2022-11-23T22:26:21.017Z,6.68
2022-11-23T22:28:49.888Z,6.70
2022-11-23T22:31:19.417Z,6.71
2022-11-23T22:33:46.353Z,6.72
2022-11-23T22:36:16.978Z,6.70
2022-11-23T22:38:44.737Z,6.70
2022-11-23T22:41:16.994Z,6.72
2022-11-23T22:43:44.147Z,6.70
2022-11-23T22:46:13.620Z,6.70
2022-11-23T22:48:41.620Z,6.70
2022-11-23T22:51:13.562Z,6.70
2022-11-23T22:53:44.859Z,6.67
2022-11-23T22:56:17.861Z,6.66
2022-11-23T22:58:45.502Z,6.64
2022-11-23T23:01:14.641Z,6.61
2022-11-23T23:03:42.244Z,6.59
2022-11-23T23:06:17.398Z,6.56
2022-11-23T23:08:44.371Z,6.57
2022-11-23T23:11:11.394Z,6.55
2022-11-23T23:13:38.006Z,6.54
2022-11-23T23:16:11.777Z,6.50
2022-11-23T23:18:38.802Z,6.48
2022-11-23T23:21:10.998Z,6.46
2022-11-23T23:23:38.860Z,6.45
2022-11-23T23:26:06.562Z,6.43
2022-11-23T23:28:33.613Z,6.41
2022-11-23T23:31:11.494Z,6.42
2022-11-23T23:33:38.333Z,6.38
2022-11-23T23:36:09.477Z,6.37
2022-11-23T23:38:39.398Z,6.36
2022-11-23T23:41:07.377Z,6.31
2022-11-23T23:43:34.427Z,6.30
2022-11-23T23:46:04.692Z,6.29
2022-11-23T23:48:33.814Z,6.28
2022-11-23T23:51:24.071Z,6.26
2022-11-23T23:53:51.506Z,6.26
2022-11-23T23:56:24.052Z,6.23
2022-11-23T23:58:51.268Z,6.21
